createdAt,value
2019-03-04T00:00:22.942Z,9.01
2019-03-04T00:01:27.316Z,9.01
2019-03-04T00:02:31.651Z,9.01
2019-03-04T00:03:36.145Z,9.00
2019-03-04T00:04:40.353Z,9.00
2019-03-04T00:05:44.629Z,8.98
2019-03-04T00:06:48.922Z,8.98
2019-03-04T00:07:53.288Z,8.98
2019-03-04T00:08:57.529Z,8.97
2019-03-04T00:10:01.821Z,8.97
2019-03-04T00:11:06.224Z,8.96
2019-03-04T00:12:10.494Z,8.95
2019-03-04T00:13:14.908Z,8.95
2019-03-04T00:14:19.148Z,8.94
2019-03-04T00:15:23.515Z,8.94
2019-03-04T00:16:27.768Z,8.93
2019-03-04T00:17:32.008Z,8.93
2019-03-04T00:18:36.338Z,8.93
2019-03-04T00:19:40.691Z,8.93
2019-03-04T00:20:44.926Z,8.91
2019-03-04T00:21:49.139Z,8.92
2019-03-04T00:22:53.510Z,8.91
2019-03-04T00:23:57.703Z,8.91
2019-03-04T00:25:02.010Z,8.91
2019-03-04T00:26:06.341Z,8.90
2019-03-04T00:27:10.596Z,8.89
2019-03-04T00:28:14.907Z,8.89
2019-03-04T00:29:19.007Z,8.89
2019-03-04T00:30:23.360Z,8.89
2019-03-04T00:31:27.652Z,8.88
2019-03-04T00:32:31.824Z,8.89
2019-03-04T00:33:36.200Z,8.87
2019-03-04T00:34:40.484Z,8.87
2019-03-04T00:35:44.770Z,8.88
2019-03-04T00:36:49.040Z,8.87
2019-03-04T00:37:53.248Z,8.85
2019-03-04T00:38:57.608Z,8.86
2019-03-04T00:40:01.893Z,8.86
2019-03-04T00:41:06.099Z,8.84
2019-03-04T00:42:10.424Z,8.85
2019-03-04T00:43:14.709Z,8.83
2019-03-04T00:44:18.991Z,8.83
2019-03-04T00:45:23.397Z,8.82
2019-03-04T00:46:27.631Z,8.83
2019-03-04T00:47:31.910Z,8.82
2019-03-04T00:48:36.235Z,8.81
2019-03-04T00:49:40.503Z,8.81
2019-03-04T00:50:44.883Z,8.81
2019-03-04T00:51:49.101Z,8.81
2019-03-04T00:52:53.194Z,8.80
2019-03-04T00:53:57.704Z,8.79
2019-03-04T00:55:01.954Z,8.79
2019-03-04T00:56:06.335Z,8.78
2019-03-04T00:57:10.573Z,8.78
2019-03-04T00:58:14.753Z,8.79
2019-03-04T00:59:18.922Z,8.77
2019-03-04T01:00:23.286Z,8.77
2019-03-04T01:01:27.612Z,8.76
2019-03-04T01:02:31.800Z,8.76
2019-03-04T01:03:36.380Z,8.76
2019-03-04T01:04:40.629Z,8.75
2019-03-04T01:05:44.879Z,8.76
2019-03-04T01:06:49.154Z,8.75
2019-03-04T01:07:53.420Z,8.75
2019-03-04T01:08:57.726Z,8.75
2019-03-04T01:10:02.085Z,8.75
2019-03-04T01:11:06.246Z,8.74
2019-03-04T01:12:10.691Z,8.74
2019-03-04T01:13:14.915Z,8.74
2019-03-04T01:14:19.268Z,8.75
2019-03-04T01:15:23.495Z,8.74
2019-03-04T01:16:27.878Z,8.74
2019-03-04T01:17:32.115Z,8.72
2019-03-04T01:18:36.411Z,8.73
2019-03-04T01:19:40.712Z,8.74
2019-03-04T01:20:45.081Z,8.74
2019-03-04T01:21:49.332Z,8.74
2019-03-04T01:22:53.596Z,8.75
2019-03-04T01:23:57.911Z,8.74
2019-03-04T01:25:02.172Z,8.74
2019-03-04T01:26:06.551Z,8.75
2019-03-04T01:27:10.863Z,8.74
2019-03-04T01:28:15.088Z,8.74
2019-03-04T01:29:19.455Z,8.72
2019-03-04T01:30:23.676Z,8.71
2019-03-04T01:31:27.849Z,8.69
2019-03-04T01:32:32.176Z,8.69
2019-03-04T01:33:36.504Z,8.69
2019-03-04T01:34:40.791Z,8.70
2019-03-04T01:35:44.953Z,8.70
2019-03-04T01:36:49.323Z,8.71
2019-03-04T01:37:53.590Z,8.70
2019-03-04T01:38:57.923Z,8.70
2019-03-04T01:40:02.232Z,8.71
2019-03-04T01:41:06.513Z,8.71
2019-03-04T01:42:10.815Z,8.71
2019-03-04T01:43:14.976Z,8.69
2019-03-04T01:44:19.333Z,8.69
2019-03-04T01:45:23.491Z,8.68
2019-03-04T01:46:27.834Z,8.67
2019-03-04T01:47:32.110Z,8.66
2019-03-04T01:48:36.422Z,8.62
2019-03-04T01:49:40.713Z,8.63
2019-03-04T01:50:44.995Z,8.58
2019-03-04T01:51:49.298Z,8.57
2019-03-04T01:52:53.679Z,8.57
2019-03-04T01:53:57.905Z,8.54
2019-03-04T01:55:02.212Z,8.53
2019-03-04T01:56:06.533Z,8.52
2019-03-04T01:57:10.813Z,8.51
2019-03-04T01:58:15.083Z,8.48
2019-03-04T01:59:19.351Z,8.47
2019-03-04T02:00:23.629Z,8.46
2019-03-04T02:01:27.907Z,8.45
2019-03-04T02:02:32.214Z,8.44
2019-03-04T02:03:36.497Z,8.43
2019-03-04T02:04:40.675Z,8.43
2019-03-04T02:05:45.007Z,8.43
2019-03-04T02:06:49.226Z,8.40
2019-03-04T02:07:53.556Z,8.40
2019-03-04T02:08:57.829Z,8.40
2019-03-04T02:10:02.087Z,8.39
2019-03-04T02:11:06.415Z,8.38
2019-03-04T02:12:10.676Z,8.38
2019-03-04T02:13:14.946Z,8.41
2019-03-04T02:14:19.220Z,8.44
2019-03-04T02:15:23.592Z,8.45
2019-03-04T02:16:27.772Z,8.46
2019-03-04T02:17:31.918Z,8.46
2019-03-04T02:18:36.226Z,8.46
2019-03-04T02:19:40.573Z,8.47
2019-03-04T02:20:44.865Z,8.46
2019-03-04T02:21:49.137Z,8.45
2019-03-04T02:22:53.407Z,8.42
2019-03-04T02:23:57.676Z,8.41
2019-03-04T02:25:02.069Z,8.38
2019-03-04T02:26:06.311Z,8.37
2019-03-04T02:27:10.610Z,8.36
2019-03-04T02:28:14.858Z,8.35
2019-03-04T02:29:19.234Z,8.32
2019-03-04T02:30:23.392Z,8.32
2019-03-04T02:31:27.736Z,8.30
2019-03-04T02:32:31.995Z,8.28
2019-03-04T02:33:36.286Z,8.27
2019-03-04T02:34:40.605Z,8.27
2019-03-04T02:35:44.906Z,8.24
2019-03-04T02:36:49.145Z,8.25
2019-03-04T02:37:53.544Z,8.24
2019-03-04T02:38:57.868Z,8.23
2019-03-04T02:40:02.127Z,8.19
2019-03-04T02:41:06.311Z,8.20
2019-03-04T02:42:10.631Z,8.20
2019-03-04T02:43:14.892Z,8.18
2019-03-04T02:44:19.184Z,8.17
2019-03-04T02:45:23.482Z,8.17
2019-03-04T02:46:27.779Z,8.16
2019-03-04T02:47:32.136Z,8.15
2019-03-04T02:48:36.473Z,8.13
2019-03-04T02:49:40.715Z,8.12
2019-03-04T02:50:45.104Z,8.11
2019-03-04T02:51:49.270Z,8.10
2019-03-04T02:52:53.616Z,8.10
2019-03-04T02:53:57.882Z,8.11
2019-03-04T02:55:02.165Z,8.11
2019-03-04T02:56:06.431Z,8.10
2019-03-04T02:57:10.760Z,8.10
2019-03-04T02:58:15.027Z,8.10
2019-03-04T02:59:19.303Z,8.09
2019-03-04T03:00:23.594Z,8.08
2019-03-04T03:01:27.860Z,8.08
2019-03-04T03:02:32.144Z,8.09
2019-03-04T03:03:36.422Z,8.08
2019-03-04T03:04:40.688Z,8.08
2019-03-04T03:05:44.909Z,8.07
2019-03-04T03:06:49.191Z,8.05
2019-03-04T03:07:53.439Z,8.05
2019-03-04T03:08:57.713Z,8.04
2019-03-04T03:10:01.900Z,8.02
2019-03-04T03:11:06.265Z,8.00
2019-03-04T03:12:10.661Z,8.02
2019-03-04T03:13:14.893Z,8.02
2019-03-04T03:14:19.183Z,8.01
2019-03-04T03:15:23.448Z,8.01
2019-03-04T03:16:27.731Z,8.03
2019-03-04T03:17:32.021Z,8.04
2019-03-04T03:18:36.293Z,8.05
2019-03-04T03:19:40.563Z,8.06
2019-03-04T03:20:44.837Z,8.07
2019-03-04T03:21:49.109Z,8.08
2019-03-04T03:22:53.379Z,8.08
2019-03-04T03:23:59.301Z,8.07
2019-03-04T03:25:02.021Z,8.08
2019-03-04T03:26:06.352Z,8.09
2019-03-04T03:27:10.602Z,8.09
2019-03-04T03:28:14.910Z,8.10
2019-03-04T03:29:19.202Z,8.13
2019-03-04T03:30:23.516Z,8.14
2019-03-04T03:31:27.760Z,8.16
2019-03-04T03:32:32.044Z,8.16
2019-03-04T03:33:36.345Z,8.14
2019-03-04T03:34:40.632Z,8.15
2019-03-04T03:35:44.908Z,8.15
2019-03-04T03:36:49.181Z,8.15
2019-03-04T03:37:53.503Z,8.15
2019-03-04T03:38:57.767Z,8.14
2019-03-04T03:40:02.045Z,8.16
2019-03-04T03:41:06.359Z,8.15
2019-03-04T03:42:10.619Z,8.14
2019-03-04T03:43:14.896Z,8.17
2019-03-04T03:44:19.188Z,8.16
2019-03-04T03:45:23.452Z,8.18
2019-03-04T03:46:27.859Z,8.20
2019-03-04T03:47:32.080Z,8.18
2019-03-04T03:48:36.361Z,8.17
2019-03-04T03:49:40.623Z,8.18
2019-03-04T03:50:44.901Z,8.18
2019-03-04T03:51:49.199Z,8.17
2019-03-04T03:52:53.449Z,8.17
2019-03-04T03:53:57.769Z,8.19
2019-03-04T03:55:02.053Z,8.19
2019-03-04T03:56:06.329Z,8.19
2019-03-04T03:57:10.584Z,8.20
2019-03-04T03:58:14.882Z,8.21
2019-03-04T03:59:19.171Z,8.22
2019-03-04T04:00:23.457Z,8.21
2019-03-04T04:01:27.788Z,8.20
2019-03-04T04:02:32.082Z,8.21
2019-03-04T04:03:36.395Z,8.20
2019-03-04T04:04:40.689Z,8.17
2019-03-04T04:05:44.957Z,8.13
2019-03-04T04:06:49.218Z,8.14
2019-03-04T04:07:53.563Z,8.15
2019-03-04T04:08:57.844Z,8.16
2019-03-04T04:10:02.108Z,8.15
2019-03-04T04:11:06.344Z,8.16
2019-03-04T04:12:10.517Z,8.14
2019-03-04T04:13:14.853Z,8.15
2019-03-04T04:14:19.131Z,8.13
2019-03-04T04:15:23.397Z,8.14
2019-03-04T04:16:27.781Z,8.12
2019-03-04T04:17:32.065Z,8.11
2019-03-04T04:18:36.303Z,8.12
2019-03-04T04:19:40.615Z,8.08
2019-03-04T04:20:44.882Z,8.12
2019-03-04T04:21:49.171Z,8.08
2019-03-04T04:22:53.453Z,8.09
2019-03-04T04:23:57.708Z,8.11
2019-03-04T04:25:02.026Z,8.05
2019-03-04T04:26:06.267Z,8.08
2019-03-04T04:27:10.534Z,8.08
2019-03-04T04:28:14.733Z,8.06
2019-03-04T04:29:19.062Z,8.06
2019-03-04T04:30:23.273Z,8.03
2019-03-04T04:31:27.591Z,8.02
2019-03-04T04:32:31.848Z,8.03
2019-03-04T04:33:36.172Z,8.03
2019-03-04T04:34:40.463Z,8.03
2019-03-04T04:35:44.745Z,8.04
2019-03-04T04:36:48.999Z,8.04
2019-03-04T04:37:53.292Z,8.05
2019-03-04T04:38:57.584Z,8.04
2019-03-04T04:40:01.960Z,8.05
2019-03-04T04:41:06.149Z,8.06
2019-03-04T04:42:10.334Z,8.06
2019-03-04T04:43:14.595Z,8.05
2019-03-04T04:44:18.934Z,8.05
2019-03-04T04:45:23.306Z,8.05
2019-03-04T04:46:27.532Z,8.03
2019-03-04T04:47:31.832Z,8.03
2019-03-04T04:48:36.085Z,8.05
2019-03-04T04:49:40.365Z,8.03
2019-03-04T04:50:44.679Z,8.03
2019-03-04T04:51:48.937Z,8.07
2019-03-04T04:52:53.192Z,8.06
2019-03-04T04:53:57.508Z,8.07
2019-03-04T04:55:01.757Z,8.05
2019-03-04T04:56:06.070Z,8.06
2019-03-04T04:57:10.325Z,8.05
2019-03-04T04:58:14.647Z,8.08
2019-03-04T04:59:18.909Z,8.10
2019-03-04T05:00:23.174Z,8.08
2019-03-04T05:01:27.455Z,8.07
2019-03-04T05:02:31.767Z,8.09
2019-03-04T05:03:36.033Z,8.05
2019-03-04T05:04:40.232Z,8.06
2019-03-04T05:05:44.591Z,8.07
2019-03-04T05:06:48.836Z,8.08
2019-03-04T05:07:53.137Z,8.11
2019-03-04T05:08:57.420Z,8.08
2019-03-04T05:10:01.677Z,8.10
2019-03-04T05:11:05.992Z,8.09
2019-03-04T05:12:10.265Z,8.10
2019-03-04T05:13:14.496Z,8.08
2019-03-04T05:14:18.931Z,8.08
2019-03-04T05:15:23.155Z,8.10
2019-03-04T05:16:27.457Z,8.07
2019-03-04T05:17:31.661Z,8.11
2019-03-04T05:18:35.975Z,8.08
2019-03-04T05:19:40.334Z,8.11
2019-03-04T05:20:44.568Z,8.07
2019-03-04T05:21:48.820Z,8.12
2019-03-04T05:22:53.099Z,8.10
2019-03-04T05:23:57.416Z,8.10
2019-03-04T05:25:01.625Z,8.13
2019-03-04T05:26:06.042Z,8.15
2019-03-04T05:27:10.294Z,8.13
2019-03-04T05:28:14.472Z,8.14
2019-03-04T05:29:18.908Z,8.14
2019-03-04T05:30:23.135Z,8.12
2019-03-04T05:31:27.444Z,8.16
2019-03-04T05:32:31.760Z,8.16
2019-03-04T05:33:36.040Z,8.14
2019-03-04T05:34:49.345Z,8.08
2019-03-04T05:35:51.929Z,8.10
2019-03-04T05:36:56.864Z,8.12
2019-03-04T05:38:00.835Z,8.09
2019-03-04T05:39:05.149Z,8.09
2019-03-04T05:40:09.440Z,8.12
2019-03-04T05:41:13.546Z,8.14
2019-03-04T05:42:18.058Z,8.12
2019-03-04T05:43:22.258Z,8.11
2019-03-04T05:44:26.532Z,8.07
2019-03-04T05:45:30.728Z,8.10
2019-03-04T05:46:35.061Z,8.04
2019-03-04T05:47:39.358Z,8.09
2019-03-04T05:48:43.650Z,8.04
2019-03-04T05:49:47.890Z,8.03
2019-03-04T05:50:52.279Z,8.06
2019-03-04T05:51:56.677Z,8.06
2019-03-04T05:53:00.877Z,8.08
2019-03-04T05:54:05.137Z,8.04
2019-03-04T05:55:09.401Z,8.02
2019-03-04T05:56:13.682Z,7.99
2019-03-04T05:57:17.987Z,8.05
2019-03-04T05:58:22.398Z,8.02
2019-03-04T05:59:26.621Z,8.06
2019-03-04T06:00:30.889Z,8.08
2019-03-04T06:01:35.193Z,8.06
2019-03-04T06:02:39.507Z,8.11
2019-03-04T06:03:43.803Z,8.08
2019-03-04T06:04:48.078Z,8.06
2019-03-04T06:05:52.371Z,8.09
2019-03-04T06:06:56.626Z,8.12
2019-03-04T06:08:00.942Z,8.13
2019-03-04T06:09:05.139Z,8.12
2019-03-04T06:10:09.498Z,8.12
2019-03-04T06:11:13.765Z,8.12
2019-03-04T06:12:18.063Z,8.14
2019-03-04T06:13:22.320Z,8.11
2019-03-04T06:14:26.671Z,8.14
2019-03-04T06:15:30.951Z,8.16
2019-03-04T06:16:35.245Z,8.18
2019-03-04T06:17:39.584Z,8.14
2019-03-04T06:18:43.836Z,8.11
2019-03-04T06:19:48.098Z,8.15
2019-03-04T06:20:52.393Z,8.14
2019-03-04T06:21:56.666Z,8.14
2019-03-04T06:23:01.007Z,8.11
2019-03-04T06:24:05.293Z,8.12
2019-03-04T06:25:09.578Z,8.10
2019-03-04T06:26:13.880Z,8.15
2019-03-04T06:27:18.249Z,8.12
2019-03-04T06:28:22.482Z,8.11
2019-03-04T06:29:26.763Z,8.09
2019-03-04T06:30:31.171Z,8.11
2019-03-04T06:31:35.368Z,8.01
2019-03-04T06:32:39.560Z,8.05
2019-03-04T06:33:43.926Z,8.12
2019-03-04T06:34:48.194Z,8.13
2019-03-04T06:35:52.590Z,8.10
2019-03-04T06:36:56.825Z,8.08
2019-03-04T06:38:01.162Z,8.09
2019-03-04T06:39:05.295Z,8.06
2019-03-04T06:40:09.682Z,8.08
2019-03-04T06:41:13.962Z,8.05
2019-03-04T06:42:18.237Z,8.02
2019-03-04T06:43:22.567Z,8.08
2019-03-04T06:44:26.838Z,8.12
2019-03-04T06:45:31.105Z,8.07
2019-03-04T06:46:35.450Z,8.06
2019-03-04T06:47:39.671Z,8.03
2019-03-04T06:48:44.044Z,8.02
2019-03-04T06:49:48.201Z,8.01
2019-03-04T06:50:52.521Z,7.96
2019-03-04T06:51:56.800Z,8.00
2019-03-04T06:53:01.144Z,8.01
2019-03-04T06:54:05.414Z,8.02
2019-03-04T06:55:09.642Z,8.01
2019-03-04T06:56:13.968Z,7.95
2019-03-04T06:57:27.897Z,8.02
2019-03-04T06:58:22.587Z,8.01
2019-03-04T06:59:26.847Z,8.07
2019-03-04T07:00:31.130Z,8.10
2019-03-04T07:01:35.434Z,8.07
2019-03-04T07:02:39.531Z,8.11
2019-03-04T07:03:43.954Z,8.09
2019-03-04T07:04:48.207Z,8.13
2019-03-04T07:05:52.524Z,8.13
2019-03-04T07:06:56.794Z,8.09
2019-03-04T07:08:01.093Z,8.10
2019-03-04T07:09:05.413Z,8.07
2019-03-04T07:10:09.687Z,8.09
2019-03-04T07:11:13.945Z,8.15
2019-03-04T07:12:18.298Z,8.11
2019-03-04T07:13:22.633Z,8.10
2019-03-04T07:14:27.007Z,8.04
2019-03-04T07:15:31.273Z,8.03
2019-03-04T07:16:35.553Z,8.06
2019-03-04T07:17:39.842Z,8.07
2019-03-04T07:18:44.015Z,8.04
2019-03-04T07:19:48.401Z,8.12
2019-03-04T07:20:52.708Z,8.01
2019-03-04T07:21:57.005Z,8.08
2019-03-04T07:23:01.362Z,8.10
2019-03-04T07:24:05.623Z,8.11
2019-03-04T07:25:09.983Z,8.14
2019-03-04T07:26:14.247Z,8.04
2019-03-04T07:27:18.546Z,8.01
2019-03-04T07:28:22.825Z,8.07
2019-03-04T07:29:27.224Z,8.12
2019-03-04T07:30:31.470Z,8.08
2019-03-04T07:31:35.779Z,8.10
2019-03-04T07:32:40.070Z,8.03
2019-03-04T07:33:44.433Z,8.08
2019-03-04T07:34:48.714Z,8.08
2019-03-04T07:35:52.993Z,8.09
2019-03-04T07:36:57.278Z,8.14
2019-03-04T07:38:01.483Z,8.08
2019-03-04T07:39:05.820Z,8.11
2019-03-04T07:40:10.113Z,8.03
2019-03-04T07:41:14.386Z,8.05
2019-03-04T07:42:18.613Z,8.13
2019-03-04T07:43:22.953Z,8.13
2019-03-04T07:44:27.240Z,8.08
2019-03-04T07:45:31.497Z,8.13
2019-03-04T07:46:35.788Z,8.17
2019-03-04T07:47:40.065Z,8.19
2019-03-04T07:48:44.363Z,8.22
2019-03-04T07:49:48.710Z,8.11
2019-03-04T07:50:52.858Z,8.14
2019-03-04T07:51:57.204Z,8.16
2019-03-04T07:53:01.538Z,8.06
2019-03-04T07:54:05.831Z,8.09
2019-03-04T07:55:10.264Z,8.12
2019-03-04T07:56:14.516Z,8.14
2019-03-04T07:57:18.703Z,8.23
2019-03-04T07:58:23.083Z,8.28
2019-03-04T07:59:27.355Z,8.26
2019-03-04T08:00:31.679Z,8.17
2019-03-04T08:01:36.001Z,8.23
2019-03-04T08:02:40.387Z,8.23
2019-03-04T08:03:44.654Z,8.13
2019-03-04T08:04:49.025Z,8.25
2019-03-04T08:05:53.247Z,8.23
2019-03-04T08:06:57.554Z,8.28
2019-03-04T08:08:01.806Z,8.25
2019-03-04T08:09:06.015Z,8.23
2019-03-04T08:10:10.382Z,8.27
2019-03-04T08:11:14.649Z,8.39
2019-03-04T08:12:18.852Z,8.25
2019-03-04T08:13:23.206Z,8.23
2019-03-04T08:14:27.520Z,8.28
2019-03-04T08:15:31.841Z,8.24
2019-03-04T08:16:36.416Z,8.18
2019-03-04T08:17:40.361Z,8.29
2019-03-04T08:18:44.603Z,8.13
2019-03-04T08:19:48.934Z,8.30
2019-03-04T08:20:53.236Z,8.22
2019-03-04T08:21:57.528Z,8.22
2019-03-04T08:23:01.806Z,8.23
2019-03-04T08:24:06.123Z,8.28
2019-03-04T08:25:10.361Z,8.28
2019-03-04T08:26:14.689Z,8.25
2019-03-04T08:27:19.052Z,8.25
2019-03-04T08:28:23.313Z,8.32
2019-03-04T08:29:27.674Z,8.12
2019-03-04T08:30:31.971Z,8.15
2019-03-04T08:31:36.394Z,8.08
2019-03-04T08:32:40.594Z,8.07
2019-03-04T08:33:44.915Z,8.19
2019-03-04T08:34:49.218Z,8.14
2019-03-04T08:35:53.532Z,8.24
2019-03-04T08:36:57.855Z,8.22
2019-03-04T08:38:02.155Z,8.24
2019-03-04T08:39:06.473Z,8.29
2019-03-04T08:40:10.722Z,8.14
2019-03-04T08:41:15.096Z,8.19
2019-03-04T08:42:19.374Z,8.16
2019-03-04T08:43:23.677Z,8.19
2019-03-04T08:44:27.958Z,8.26
2019-03-04T08:45:32.185Z,8.27
2019-03-04T08:46:36.511Z,8.07
2019-03-04T08:47:40.812Z,8.09
2019-03-04T08:48:45.122Z,8.08
2019-03-04T08:49:48.762Z,8.05
2019-03-04T08:50:53.093Z,8.16
2019-03-04T08:51:57.372Z,8.09
2019-03-04T08:53:01.591Z,8.00
2019-03-04T08:54:05.967Z,7.85
2019-03-04T08:55:10.271Z,7.93
2019-03-04T08:56:14.612Z,7.88
2019-03-04T08:57:18.897Z,8.01
2019-03-04T08:58:23.167Z,8.10
2019-03-04T08:59:27.460Z,7.98
2019-03-04T09:00:31.849Z,8.01
2019-03-04T09:01:36.119Z,8.02
2019-03-04T09:02:40.347Z,8.08
2019-03-04T09:03:44.567Z,8.19
2019-03-04T09:04:48.915Z,8.13
2019-03-04T09:05:53.147Z,7.98
2019-03-04T09:06:57.341Z,8.08
2019-03-04T09:08:01.766Z,8.26
2019-03-04T09:09:06.100Z,8.35
2019-03-04T09:10:10.388Z,8.24
2019-03-04T09:11:14.735Z,8.29
2019-03-04T09:12:19.133Z,8.15
2019-03-04T09:13:23.394Z,8.17
2019-03-04T09:14:27.719Z,8.26
2019-03-04T09:15:31.942Z,8.25
2019-03-04T09:16:36.314Z,8.11
2019-03-04T09:17:40.606Z,8.10
2019-03-04T09:18:44.971Z,8.13
2019-03-04T09:19:49.249Z,8.17
2019-03-04T09:20:53.548Z,8.22
2019-03-04T09:21:57.763Z,8.31
2019-03-04T09:23:02.163Z,8.21
2019-03-04T09:24:06.409Z,8.00
2019-03-04T09:25:10.593Z,8.17
2019-03-04T09:26:14.825Z,8.03
2019-03-04T09:27:19.224Z,8.01
2019-03-04T09:28:23.540Z,8.03
2019-03-04T09:29:27.823Z,8.07
2019-03-04T09:30:32.173Z,7.82
2019-03-04T09:31:36.411Z,7.96
2019-03-04T09:32:40.697Z,7.82
2019-03-04T09:33:45.072Z,7.96
2019-03-04T09:34:49.385Z,7.93
2019-03-04T09:35:53.714Z,7.96
2019-03-04T09:36:58.035Z,7.98
2019-03-04T09:38:02.385Z,7.95
2019-03-04T09:39:06.833Z,7.90
2019-03-04T09:40:11.133Z,8.02
2019-03-04T09:41:15.398Z,7.85
2019-03-04T09:42:19.726Z,7.90
2019-03-04T09:43:23.945Z,7.89
2019-03-04T09:44:28.308Z,7.95
2019-03-04T09:45:38.784Z,7.94
2019-03-04T09:46:36.932Z,7.97
2019-03-04T09:47:41.300Z,8.02
2019-03-04T09:48:45.590Z,7.93
2019-03-04T09:49:49.914Z,7.99
2019-03-04T09:50:54.272Z,8.12
2019-03-04T09:51:58.593Z,7.96
2019-03-04T09:53:03.003Z,8.12
2019-03-04T09:54:07.257Z,8.13
2019-03-04T09:55:11.605Z,8.05
2019-03-04T09:56:15.932Z,8.03
2019-03-04T09:57:20.261Z,8.23
2019-03-04T09:58:24.579Z,8.24
2019-03-04T09:59:28.934Z,8.18
2019-03-04T10:00:33.225Z,8.24
2019-03-04T10:01:37.586Z,8.33
2019-03-04T10:02:41.886Z,8.18
2019-03-04T10:03:46.204Z,8.41
2019-03-04T10:04:50.539Z,8.30
2019-03-04T10:05:54.879Z,8.17
2019-03-04T10:06:59.205Z,8.32
2019-03-04T10:08:03.569Z,8.28
2019-03-04T10:09:07.883Z,8.29
2019-03-04T10:10:12.155Z,8.39
2019-03-04T10:11:16.582Z,8.15
2019-03-04T10:12:20.894Z,8.21
2019-03-04T10:13:25.214Z,8.34
2019-03-04T10:14:29.559Z,8.39
2019-03-04T10:15:33.901Z,8.40
2019-03-04T10:16:38.212Z,8.38
2019-03-04T10:17:42.513Z,8.29
2019-03-04T10:18:46.850Z,8.28
2019-03-04T10:19:51.158Z,8.27
2019-03-04T10:20:55.489Z,8.35
2019-03-04T10:21:59.845Z,8.47
2019-03-04T10:23:04.173Z,8.53
2019-03-04T10:24:08.501Z,8.63
2019-03-04T10:25:12.824Z,8.64
2019-03-04T10:26:22.765Z,8.70
2019-03-04T10:27:21.451Z,8.88
2019-03-04T10:28:25.741Z,8.76
2019-03-04T10:29:29.954Z,8.64
2019-03-04T10:30:34.319Z,8.68
2019-03-04T10:31:38.705Z,8.96
2019-03-04T10:32:43.055Z,8.83
2019-03-04T10:33:47.338Z,8.69
2019-03-04T10:34:51.594Z,8.63
2019-03-04T10:35:55.916Z,8.39
2019-03-04T10:37:00.273Z,8.30
2019-03-04T10:38:04.524Z,8.19
2019-03-04T10:39:08.795Z,8.18
2019-03-04T10:40:13.079Z,8.08
2019-03-04T10:41:17.402Z,7.96
2019-03-04T10:42:21.759Z,7.86
2019-03-04T10:43:25.994Z,7.84
2019-03-04T10:44:30.277Z,7.83
2019-03-04T10:45:34.577Z,7.74
2019-03-04T10:46:38.758Z,7.71
2019-03-04T10:47:43.096Z,7.73
2019-03-04T10:48:47.358Z,7.76
2019-03-04T10:49:51.563Z,7.77
2019-03-04T10:50:55.897Z,7.70
2019-03-04T10:52:00.218Z,7.66
2019-03-04T10:53:04.473Z,7.64
2019-03-04T10:54:08.797Z,7.68
2019-03-04T10:55:13.062Z,7.60
2019-03-04T10:56:17.350Z,7.56
2019-03-04T10:57:21.652Z,7.49
2019-03-04T10:58:25.956Z,7.43
2019-03-04T10:59:30.242Z,7.45
2019-03-04T11:00:34.488Z,7.38
2019-03-04T11:01:38.853Z,7.37
2019-03-04T11:02:43.036Z,7.35
2019-03-04T11:03:47.360Z,7.33
2019-03-04T11:04:51.673Z,7.38
2019-03-04T11:05:55.873Z,7.38
2019-03-04T11:06:59.993Z,7.30
2019-03-04T11:08:04.351Z,7.26
2019-03-04T11:09:08.633Z,7.19
2019-03-04T11:10:12.925Z,7.20
2019-03-04T11:11:17.230Z,7.17
2019-03-04T11:12:21.498Z,7.14
2019-03-04T11:13:25.817Z,7.14
2019-03-04T11:14:30.091Z,7.07
2019-03-04T11:15:34.438Z,7.08
2019-03-04T11:16:38.657Z,7.09
2019-03-04T11:17:43.029Z,7.06
2019-03-04T11:18:47.279Z,7.03
2019-03-04T11:19:51.560Z,7.02
2019-03-04T11:20:55.860Z,6.99
2019-03-04T11:22:00.149Z,7.01
2019-03-04T11:23:04.475Z,7.01
2019-03-04T11:24:08.791Z,6.97
2019-03-04T11:25:13.050Z,6.96
2019-03-04T11:26:17.318Z,6.96
2019-03-04T11:27:21.579Z,6.96
2019-03-04T11:28:25.875Z,6.95
2019-03-04T11:29:30.174Z,6.93
2019-03-04T11:30:34.451Z,6.95
2019-03-04T11:31:38.708Z,6.94
2019-03-04T11:32:42.871Z,6.91
2019-03-04T11:33:47.227Z,6.91
2019-03-04T11:34:51.464Z,6.95
2019-03-04T11:35:55.794Z,6.96
2019-03-04T11:37:00.037Z,6.94
2019-03-04T11:38:04.322Z,6.90
2019-03-04T11:39:08.540Z,6.88
2019-03-04T11:40:12.906Z,6.87
2019-03-04T11:41:17.136Z,6.84
2019-03-04T11:42:21.441Z,6.85
2019-03-04T11:43:25.655Z,6.77
2019-03-04T11:44:30.093Z,6.70
2019-03-04T11:45:34.434Z,6.65
2019-03-04T11:46:38.676Z,6.61
2019-03-04T11:47:43.043Z,6.65
2019-03-04T11:48:47.285Z,6.63
2019-03-04T11:49:53.380Z,6.63
2019-03-04T11:50:55.888Z,6.65
2019-03-04T11:52:00.157Z,6.67
2019-03-04T11:53:04.545Z,6.70
2019-03-04T11:54:08.785Z,6.71
2019-03-04T11:55:13.102Z,6.75
2019-03-04T11:56:17.233Z,6.78
2019-03-04T11:57:21.562Z,6.82
2019-03-04T11:58:25.839Z,6.88
2019-03-04T11:59:30.147Z,6.94
2019-03-04T12:00:34.415Z,6.99
2019-03-04T12:01:38.716Z,7.08
2019-03-04T12:02:43.036Z,7.15
2019-03-04T12:03:47.330Z,7.23
2019-03-04T12:04:51.566Z,7.30
2019-03-04T12:05:55.896Z,7.14
2019-03-04T12:07:00.042Z,7.31
2019-03-04T12:08:04.432Z,7.32
2019-03-04T12:09:08.774Z,7.40
2019-03-04T12:10:13.074Z,7.31
2019-03-04T12:11:17.363Z,7.26
2019-03-04T12:12:21.771Z,7.42
2019-03-04T12:13:26.012Z,7.42
2019-03-04T12:14:30.226Z,7.48
2019-03-04T12:15:34.541Z,7.49
2019-03-04T12:16:38.774Z,7.43
2019-03-04T12:17:43.113Z,7.36
2019-03-04T12:18:47.460Z,7.24
2019-03-04T12:19:51.754Z,7.24
2019-03-04T12:20:56.094Z,7.14
2019-03-04T12:22:00.347Z,7.01
2019-03-04T12:23:04.660Z,7.02
2019-03-04T12:24:08.913Z,7.00
2019-03-04T12:25:13.230Z,6.95
2019-03-04T12:26:18.618Z,6.98
2019-03-04T12:27:21.767Z,6.98
2019-03-04T12:28:25.976Z,6.89
2019-03-04T12:29:30.237Z,6.88
2019-03-04T12:30:34.562Z,6.80
2019-03-04T12:31:38.841Z,6.61
2019-03-04T12:32:43.008Z,6.64
2019-03-04T12:33:47.343Z,6.62
2019-03-04T12:34:51.642Z,6.67
2019-03-04T12:35:56.012Z,6.62
2019-03-04T12:37:00.334Z,6.55
2019-03-04T12:38:04.466Z,6.63
2019-03-04T12:39:08.779Z,6.63
2019-03-04T12:40:13.087Z,6.63
2019-03-04T12:41:17.448Z,6.42
2019-03-04T12:42:21.594Z,6.53
2019-03-04T12:43:25.934Z,6.61
2019-03-04T12:44:30.309Z,6.82
2019-03-04T12:45:34.885Z,6.93
2019-03-04T12:46:38.801Z,7.08
2019-03-04T12:47:43.158Z,7.33
2019-03-04T12:48:47.451Z,7.47
2019-03-04T12:49:51.838Z,7.39
2019-03-04T12:50:56.013Z,7.42
2019-03-04T12:52:00.257Z,7.58
2019-03-04T12:53:04.517Z,7.62
2019-03-04T12:54:08.873Z,7.62
2019-03-04T12:55:13.045Z,7.70
2019-03-04T12:56:17.350Z,7.60
2019-03-04T12:57:21.787Z,7.69
2019-03-04T12:58:25.947Z,7.64
2019-03-04T12:59:30.208Z,7.50
2019-03-04T13:00:34.599Z,7.49
2019-03-04T13:01:38.914Z,7.52
2019-03-04T13:02:43.257Z,7.62
2019-03-04T13:03:47.553Z,7.42
2019-03-04T13:04:51.768Z,7.33
2019-03-04T13:05:56.137Z,7.30
2019-03-04T13:07:00.430Z,7.22
2019-03-04T13:08:04.713Z,7.04
2019-03-04T13:09:14.508Z,7.24
2019-03-04T13:10:13.260Z,7.01
2019-03-04T13:11:17.578Z,7.06
2019-03-04T13:12:21.880Z,7.20
2019-03-04T13:13:26.160Z,7.08
2019-03-04T13:14:30.384Z,7.18
2019-03-04T13:15:34.684Z,7.04
2019-03-04T13:16:39.079Z,6.89
2019-03-04T13:17:43.387Z,7.00
2019-03-04T13:18:47.569Z,6.98
2019-03-04T13:19:51.859Z,6.65
2019-03-04T13:20:56.188Z,6.50
2019-03-04T13:22:08.307Z,6.48
2019-03-04T13:23:04.609Z,6.31
2019-03-04T13:24:08.962Z,6.38
2019-03-04T13:25:13.127Z,6.37
2019-03-04T13:26:17.483Z,6.47
2019-03-04T13:27:24.019Z,6.48
2019-03-04T13:28:26.011Z,6.48
2019-03-04T13:29:30.312Z,6.58
2019-03-04T13:30:34.616Z,6.64
2019-03-04T13:31:38.883Z,6.64
2019-03-04T13:32:43.082Z,6.71
2019-03-04T13:33:47.535Z,6.62
2019-03-04T13:34:51.732Z,6.95
2019-03-04T13:35:55.973Z,6.95
2019-03-04T13:37:00.424Z,6.70
2019-03-04T13:38:04.704Z,6.94
2019-03-04T13:39:08.889Z,6.84
2019-03-04T13:40:13.242Z,6.72
2019-03-04T13:41:17.561Z,6.95
2019-03-04T13:42:21.741Z,6.65
2019-03-04T13:43:26.035Z,6.57
2019-03-04T13:44:30.395Z,6.40
2019-03-04T13:45:34.633Z,6.37
2019-03-04T13:46:38.911Z,6.48
2019-03-04T13:47:43.227Z,6.33
2019-03-04T13:48:47.456Z,6.26
2019-03-04T13:49:51.725Z,6.18
2019-03-04T13:50:55.966Z,6.13
2019-03-04T13:52:00.271Z,6.44
2019-03-04T13:53:04.514Z,6.38
2019-03-04T13:54:08.874Z,6.40
2019-03-04T13:55:13.189Z,6.41
2019-03-04T13:56:17.418Z,6.33
2019-03-04T13:57:21.661Z,6.30
2019-03-04T13:58:25.911Z,6.13
2019-03-04T13:59:30.177Z,6.19
2019-03-04T14:00:34.433Z,6.21
2019-03-04T14:01:38.717Z,6.18
2019-03-04T14:02:42.901Z,6.12
2019-03-04T14:03:47.228Z,6.02
2019-03-04T14:04:51.462Z,6.07
2019-03-04T14:05:55.708Z,6.07
2019-03-04T14:06:59.947Z,5.98
2019-03-04T14:08:04.212Z,5.93
2019-03-04T14:09:08.455Z,5.91
2019-03-04T14:10:12.677Z,5.93
2019-03-04T14:11:16.956Z,5.97
2019-03-04T14:12:21.239Z,6.00
2019-03-04T14:13:25.513Z,5.95
2019-03-04T14:14:29.760Z,6.06
2019-03-04T14:15:34.027Z,5.99